Aviation Digital Data Service (ADDS)

Output produced by TAFs form (1553 UTC 29 July 2016)
found at http://www.aviationweather.gov/adds/tafs/
 
KGFL 291158Z 2912/3012 06004KT P6SM FEW080 OVC180 
     TEMPO 2912/2914 3SM BR SCT006 OVC180 
     FM291400 02004KT P6SM BKN050 OVC120 
     FM291700 04006KT P6SM VCSH SCT050 BKN200 
     FM292100 02007KT P6SM SCT200 
     FM300400 36004KT P6SM BKN200 
     FM300800 00000KT 3/4SM BR SCT200